Time;durP1;ratioP1;P1;durP2;ratioP2;P2;SDS_P1;SDS_P2;PMS_P1;PMS_P2;Temp;Humidity;BMP_temperature;BMP_pressure;BME280_temperature;BME280_humidity;BME280_pressure;Samples;Min_cycle;Max_cycle;Signal;HPM_P1;HPM_P2
2023/08/15 00:00:17;;;;;;;9.80;8.90;;;;;;;22.08;78.34;100752.80;102709;276;120776;-55
2023/08/15 00:03:18;;;;;;;9.70;8.70;;;;;;;22.11;78.37;100750.09;102734;276;104101;-53
2023/08/15 00:05:58;;;;;;;9.10;8.20;;;;;;;22.15;78.22;100753.56;102728;276;114487;-53
2023/08/15 00:08:39;;;;;;;9.70;8.80;;;;;;;22.19;78.15;100753.59;102725;276;97262;-55
2023/08/15 00:11:17;;;;;;;9.60;8.20;;;;;;;22.21;78.02;100759.24;102768;276;98173;-57
2023/08/15 00:13:56;;;;;;;9.80;8.80;;;;;;;22.22;78.02;100758.20;102765;276;119804;-57
2023/08/15 00:16:30;;;;;;;8.50;7.80;;;;;;;22.25;77.84;100754.84;102843;265;104749;-54
2023/08/15 00:19:06;;;;;;;9.00;8.10;;;;;;;22.26;77.63;100756.73;102729;276;115081;-55
2023/08/15 00:21:43;;;;;;;8.90;8.00;;;;;;;22.26;77.53;100750.54;102765;276;93894;-55
2023/08/15 00:24:22;;;;;;;8.80;7.80;;;;;;;22.27;77.44;100748.36;102819;276;97263;-55
2023/08/15 00:27:03;;;;;;;9.90;8.20;;;;;;;22.27;77.35;100749.58;102811;276;121395;-56
2023/08/15 00:29:39;;;;;;;11.10;8.30;;;;;;;22.25;77.08;100749.04;102791;276;106177;-55
2023/08/15 00:32:19;;;;;;;8.10;7.30;;;;;;;22.24;77.02;100746.79;102805;276;114297;-56
2023/08/15 00:35:02;;;;;;;9.20;7.40;;;;;;;22.23;77.04;100742.40;102819;276;96558;-56
2023/08/15 00:37:38;;;;;;;9.10;7.60;;;;;;;22.29;76.97;100747.01;102747;276;97641;-54
2023/08/15 00:40:15;;;;;;;9.20;7.20;;;;;;;22.35;76.90;100743.94;102734;276;120677;-54
2023/08/15 00:42:54;;;;;;;8.80;8.00;;;;;;;22.39;76.53;100740.73;102599;276;107184;-57
2023/08/15 00:45:41;;;;;;;9.20;8.20;;;;;;;22.40;76.56;100740.80;102771;276;114535;-58
2023/08/15 00:48:29;;;;;;;9.80;7.30;;;;;;;22.42;76.35;100744.83;102793;276;96327;-57
2023/08/15 00:51:06;;;;;;;8.80;7.00;;;;;;;22.41;76.38;100744.06;102814;276;96524;-58
2023/08/15 00:53:48;;;;;;;8.10;7.20;;;;;;;22.44;76.26;100743.92;102832;276;120439;-57
2023/08/15 00:56:25;;;;;;;8.80;7.90;;;;;;;22.46;76.33;100745.11;102682;278;104063;-57
2023/08/15 00:59:03;;;;;;;8.40;7.60;;;;;;;22.46;76.12;100741.85;102803;276;114812;-57
2023/08/15 01:01:40;;;;;;;8.00;7.20;;;;;;;22.44;76.04;100745.30;102726;276;94307;-58
2023/08/15 01:04:15;;;;;;;8.30;7.30;;;;;;;22.41;76.00;100747.30;102907;275;96272;-58
2023/08/15 01:06:53;;;;;;;10.90;8.10;;;;;;;22.41;75.90;100747.27;103010;275;120024;-58
2023/08/15 01:09:32;;;;;;;8.20;7.50;;;;;;;22.42;75.94;100750.77;102834;276;106267;-57
2023/08/15 01:12:19;;;;;;;9.20;7.80;;;;;;;22.40;75.94;100747.73;102892;276;113704;-57
2023/08/15 01:15:01;;;;;;;11.50;8.00;;;;;;;22.38;75.92;100748.65;102827;276;95523;-57
2023/08/15 01:17:45;;;;;;;8.50;7.80;;;;;;;22.37;75.99;100747.36;102829;276;97137;-53
2023/08/15 01:20:32;;;;;;;8.40;7.60;;;;;;;22.33;75.81;100742.98;102724;276;120826;-53
2023/08/15 01:23:15;;;;;;;8.60;7.60;;;;;;;22.28;75.86;100747.05;102734;276;105300;-54
2023/08/15 01:25:56;;;;;;;8.40;7.60;;;;;;;22.24;75.83;100744.96;102736;276;113362;-53
2023/08/15 01:28:35;;;;;;;8.60;7.70;;;;;;;22.22;75.99;100746.33;102730;276;96937;-53
2023/08/15 01:31:19;;;;;;;8.40;6.90;;;;;;;22.19;76.08;100743.42;102755;276;98350;-55
2023/08/15 01:34:07;;;;;;;8.40;7.60;;;;;;;22.14;76.07;100742.93;102749;276;121426;-56
2023/08/15 01:36:49;;;;;;;9.50;8.50;;;;;;;22.14;76.20;100747.16;102754;276;104269;-56
2023/08/15 01:39:35;;;;;;;9.40;8.40;;;;;;;22.14;76.26;100743.31;102732;276;114263;-55
2023/08/15 01:42:13;;;;;;;9.30;8.00;;;;;;;22.12;76.20;100740.91;102796;276;96640;-57
2023/08/15 01:44:52;;;;;;;9.20;7.80;;;;;;;22.10;76.15;100739.96;102874;276;98013;-57
2023/08/15 01:47:36;;;;;;;8.70;7.80;;;;;;;22.08;76.19;100738.11;102566;276;121767;-56
2023/08/15 01:50:18;;;;;;;9.00;8.00;;;;;;;22.05;76.44;100740.98;102753;276;105240;-56
2023/08/15 01:52:55;;;;;;;8.80;7.90;;;;;;;22.03;76.41;100741.58;102898;276;113821;-57
2023/08/15 01:55:31;;;;;;;9.00;7.50;;;;;;;22.02;76.37;100740.34;102814;276;96751;-57
2023/08/15 01:58:10;;;;;;;8.20;7.50;;;;;;;21.98;76.42;100737.98;102777;276;98329;-56
2023/08/15 02:00:46;;;;;;;8.60;7.80;;;;;;;21.93;76.35;100743.30;102727;276;119672;-56
2023/08/15 02:03:21;;;;;;;9.50;7.90;;;;;;;21.87;76.47;100746.47;102752;276;104348;-55
2023/08/15 02:05:58;;;;;;;9.70;8.50;;;;;;;21.85;76.49;100753.23;102709;276;114560;-55
2023/08/15 02:08:44;;;;;;;8.90;8.10;;;;;;;21.80;76.58;100752.67;102748;276;94438;-54
2023/08/15 02:11:25;;;;;;;9.20;7.90;;;;;;;21.72;76.67;100751.36;102834;276;98051;-53
2023/08/15 02:14:00;;;;;;;8.20;7.40;;;;;;;21.68;76.86;100750.80;102787;276;120295;-53
2023/08/15 02:16:45;;;;;;;9.60;8.00;;;;;;;21.63;76.80;100750.96;102811;276;105083;-53
2023/08/15 02:19:20;;;;;;;9.30;7.60;;;;;;;21.54;76.98;100753.96;102763;276;114409;-53
2023/08/15 02:21:59;;;;;;;9.90;7.60;;;;;;;21.48;77.07;100750.52;102818;276;95892;-55
2023/08/15 02:24:42;;;;;;;8.50;7.60;;;;;;;21.39;77.20;100753.47;102770;276;95726;-55
2023/08/15 02:27:22;;;;;;;9.60;7.50;;;;;;;21.33;77.40;100756.95;102797;276;120050;-55
2023/08/15 02:29:59;;;;;;;9.30;8.00;;;;;;;21.22;77.68;100755.23;102758;276;105764;-55
2023/08/15 02:32:37;;;;;;;8.50;7.50;;;;;;;21.16;77.65;100755.46;102795;276;115039;-55
2023/08/15 02:35:14;;;;;;;9.20;8.10;;;;;;;21.11;78.03;100759.89;102774;276;97270;-56
2023/08/15 02:37:52;;;;;;;8.70;7.90;;;;;;;21.06;78.32;100755.38;102847;276;96736;-54
2023/08/15 02:40:29;;;;;;;10.20;8.10;;;;;;;21.06;78.48;100756.08;102792;276;119917;-53
2023/08/15 02:43:08;;;;;;;8.50;7.70;;;;;;;21.05;78.55;100753.98;102827;276;104991;-53
2023/08/15 02:45:43;;;;;;;8.20;7.50;;;;;;;21.03;78.71;100758.55;102757;276;114068;-53
2023/08/15 02:48:18;;;;;;;9.40;8.10;;;;;;;21.01;78.74;100754.17;102872;276;97316;-57
2023/08/15 02:50:59;;;;;;;9.10;8.20;;;;;;;20.99;79.13;100758.60;102889;276;96658;-57
2023/08/15 02:53:37;;;;;;;8.70;7.40;;;;;;;20.97;79.28;100763.68;102731;276;120616;-55
2023/08/15 02:56:21;;;;;;;11.30;8.00;;;;;;;20.97;79.30;100765.67;102789;276;105666;-54
2023/08/15 02:59:03;;;;;;;9.00;7.80;;;;;;;20.97;79.29;100763.23;102795;276;115028;-54
2023/08/15 03:01:40;;;;;;;9.90;8.80;;;;;;;20.90;79.63;100763.48;102811;276;96593;-54
2023/08/15 03:04:20;;;;;;;9.90;9.00;;;;;;;20.92;79.68;100765.02;102761;276;97744;-53
2023/08/15 03:07:01;;;;;;;10.60;8.50;;;;;;;20.98;79.87;100763.85;102801;276;119647;-55
2023/08/15 03:09:39;;;;;;;9.60;8.70;;;;;;;21.03;80.00;100768.34;102806;276;105469;-54
2023/08/15 03:12:18;;;;;;;9.70;8.70;;;;;;;21.05;79.82;100771.90;102592;276;115045;-55
2023/08/15 03:14:53;;;;;;;9.90;8.90;;;;;;;21.10;79.88;100770.08;102229;276;502483;-55
2023/08/15 03:17:39;;;;;;;10.00;9.00;;;;;;;21.10;79.97;100771.90;102810;276;97945;-54
2023/08/15 03:20:14;;;;;;;12.90;10.20;;;;;;;21.12;79.84;100770.73;102734;276;122084;-55
2023/08/15 03:22:54;;;;;;;9.90;8.90;;;;;;;21.13;80.01;100771.34;102766;276;105509;-53
2023/08/15 03:25:33;;;;;;;10.10;9.10;;;;;;;21.14;79.96;100772.86;102745;276;114830;-53
2023/08/15 03:28:12;;;;;;;9.60;8.60;;;;;;;21.18;80.02;100771.75;102750;276;96784;-53
2023/08/15 03:30:54;;;;;;;10.40;9.30;;;;;;;21.21;80.02;100779.44;102771;276;96340;-53
2023/08/15 03:33:33;;;;;;;10.00;9.00;;;;;;;21.21;80.16;100779.39;102782;276;121052;-53
2023/08/15 03:36:11;;;;;;;13.30;9.60;;;;;;;21.23;80.08;100785.14;102760;276;105112;-55
2023/08/15 03:38:52;;;;;;;10.20;9.30;;;;;;;21.29;80.09;100786.05;102730;276;115233;-55
2023/08/15 03:41:34;;;;;;;10.00;9.00;;;;;;;21.33;80.15;100783.88;102755;276;97322;-56
2023/08/15 03:44:17;;;;;;;10.40;9.40;;;;;;;21.35;80.15;100781.96;102743;276;97674;-56
2023/08/15 03:46:59;;;;;;;10.20;9.20;;;;;;;21.33;80.11;100790.98;102760;276;120409;-53
2023/08/15 03:49:39;;;;;;;10.40;9.40;;;;;;;21.32;80.25;100791.72;102723;276;105691;-53
2023/08/15 03:52:19;;;;;;;11.10;9.80;;;;;;;21.33;80.10;100793.00;102732;276;114507;-55
2023/08/15 03:55:02;;;;;;;10.70;9.40;;;;;;;21.41;80.18;100793.40;102729;276;96585;-55
2023/08/15 03:57:38;;;;;;;10.70;9.70;;;;;;;21.42;80.01;100794.69;102805;276;98018;-53
2023/08/15 04:00:23;;;;;;;10.00;9.00;;;;;;;21.45;80.06;100793.52;102716;276;120563;-53
2023/08/15 04:03:01;;;;;;;10.20;8.90;;;;;;;21.47;80.15;100798.18;102781;276;105234;-55
2023/08/15 04:05:39;;;;;;;9.10;8.30;;;;;;;21.52;80.02;100797.31;102768;276;114507;-55
2023/08/15 04:08:21;;;;;;;10.90;9.40;;;;;;;21.56;79.90;100801.94;102571;276;95004;-58
2023/08/15 04:11:04;;;;;;;10.00;8.60;;;;;;;21.58;79.87;100804.11;102856;276;96628;-58
2023/08/15 04:13:39;;;;;;;11.70;9.30;;;;;;;21.65;79.83;100807.59;102747;276;120418;-55
2023/08/15 04:16:14;;;;;;;10.60;8.60;;;;;;;21.79;79.91;100810.98;102768;276;105493;-55
2023/08/15 04:18:53;;;;;;;10.80;9.80;;;;;;;22.01;79.95;100813.80;102763;276;114990;-55
2023/08/15 04:21:29;;;;;;;10.30;9.30;;;;;;;22.27;79.56;100811.02;102764;276;95301;-57
2023/08/15 04:24:07;;;;;;;10.90;9.80;;;;;;;22.44;79.22;100810.55;102864;276;95672;-58
2023/08/15 04:26:43;;;;;;;10.70;9.60;;;;;;;22.56;79.09;100808.77;102886;276;121274;-57
2023/08/15 04:29:21;;;;;;;12.50;9.70;;;;;;;22.69;78.90;100814.95;102861;276;105665;-58
2023/08/15 04:31:59;;;;;;;10.10;9.10;;;;;;;22.83;78.73;100818.25;102848;276;113239;-55
2023/08/15 04:34:38;;;;;;;10.10;9.10;;;;;;;22.96;78.52;100820.14;102820;276;95677;-56
2023/08/15 04:37:13;;;;;;;10.70;9.60;;;;;;;23.12;78.13;100819.48;102806;276;96808;-53
2023/08/15 04:39:53;;;;;;;12.90;9.20;;;;;;;23.27;77.92;100820.59;102711;276;120340;-54
2023/08/15 04:42:33;;;;;;;9.50;8.60;;;;;;;23.40;77.71;100821.39;102777;276;106535;-55
2023/08/15 04:45:12;;;;;;;10.20;9.20;;;;;;;23.47;77.43;100819.48;102777;276;113996;-56
2023/08/15 04:47:49;;;;;;;10.60;9.50;;;;;;;23.56;77.12;100821.75;102787;276;94942;-53
2023/08/15 04:50:26;;;;;;;10.40;8.80;;;;;;;23.63;76.69;100821.96;102775;276;96694;-56
2023/08/15 04:53:08;;;;;;;10.90;9.40;;;;;;;23.67;76.39;100821.13;102787;292;120221;-55
2023/08/15 04:55:46;;;;;;;10.00;9.10;;;;;;;24.00;76.30;100826.30;102734;276;104575;-55
2023/08/15 04:58:24;;;;;;;10.10;9.10;;;;;;;24.56;75.46;100823.33;102729;276;113592;-56
2023/08/15 05:01:06;;;;;;;10.50;9.10;;;;;;;24.80;75.08;100819.80;102761;276;97251;-55
2023/08/15 05:03:45;;;;;;;10.50;9.50;;;;;;;25.49;74.43;100810.06;102747;276;98357;-55
2023/08/15 05:06:23;;;;;;;10.50;9.40;;;;;;;25.82;73.33;100808.60;102773;276;121387;-54
2023/08/15 05:09:06;;;;;;;10.60;9.60;;;;;;;25.72;72.72;100807.80;102746;276;104514;-56
2023/08/15 05:11:42;;;;;;;9.10;8.30;;;;;;;25.70;72.27;100814.16;102779;276;114729;-54
2023/08/15 05:14:17;;;;;;;10.20;9.20;;;;;;;25.55;71.94;100815.01;102751;276;94340;-54
2023/08/15 05:16:51;;;;;;;9.50;8.50;;;;;;;25.52;71.70;100815.45;102788;276;98234;-55
2023/08/15 05:19:32;;;;;;;9.50;8.50;;;;;;;25.58;71.50;100814.84;102757;276;121521;-55
2023/08/15 05:22:06;;;;;;;9.70;8.70;;;;;;;25.70;71.21;100815.48;102807;276;104811;-55
2023/08/15 05:24:43;;;;;;;10.90;8.70;;;;;;;25.84;70.86;100817.51;102743;276;113978;-55
2023/08/15 05:27:21;;;;;;;8.90;8.00;;;;;;;25.86;70.52;100815.50;102813;276;94194;-53
2023/08/15 05:30:05;;;;;;;11.50;8.50;;;;;;;26.02;70.11;100817.64;102814;276;97215;-54
2023/08/15 05:32:41;;;;;;;10.60;9.30;;;;;;;26.31;69.55;100819.58;102824;276;119608;-54
2023/08/15 05:35:18;;;;;;;11.30;8.30;;;;;;;26.55;68.93;100819.45;102811;276;105925;-53
2023/08/15 05:37:59;;;;;;;8.60;7.80;;;;;;;27.16;68.17;100818.61;102781;276;114511;-54
2023/08/15 05:40:39;;;;;;;8.60;7.80;;;;;;;28.39;66.61;100823.98;102759;276;93661;-53
2023/08/15 05:43:27;;;;;;;8.00;7.20;;;;;;;29.88;64.69;100814.73;102842;276;98780;-55
2023/08/15 05:46:10;;;;;;;7.30;6.60;;;;;;;31.62;62.71;100818.02;102841;276;119560;-57
2023/08/15 05:48:47;;;;;;;8.80;7.10;;;;;;;33.13;60.43;100819.38;102916;276;106109;-58
2023/08/15 05:51:26;;;;;;;9.30;6.80;;;;;;;34.32;57.83;100814.46;102947;276;115139;-55
2023/08/15 05:54:03;;;;;;;7.10;6.40;;;;;;;35.26;55.42;100814.00;102787;276;95204;-56
2023/08/15 05:56:45;;;;;;;8.20;6.50;;;;;;;36.28;53.54;100812.55;102785;276;98595;-58
2023/08/15 05:59:22;;;;;;;8.40;6.50;;;;;;;37.01;51.30;100814.58;102808;276;120650;-58
2023/08/15 06:01:59;;;;;;;6.50;5.80;;;;;;;37.57;49.51;100812.55;102880;276;105595;-52
2023/08/15 06:04:34;;;;;;;6.70;6.10;;;;;;;38.10;47.24;100811.66;102796;276;113900;-53
2023/08/15 06:07:12;;;;;;;6.50;5.90;;;;;;;38.41;45.27;100806.16;102782;276;95227;-56
2023/08/15 06:09:49;;;;;;;6.70;5.90;;;;;;;38.95;44.11;100813.98;102812;276;97709;-55
2023/08/15 06:12:28;;;;;;;6.20;5.70;;;;;;;39.34;42.23;100812.59;102802;276;120048;-52
2023/08/15 06:15:05;;;;;;;6.20;5.60;;;;;;;39.68;41.11;100814.73;102803;276;104479;-53
2023/08/15 06:17:43;;;;;;;6.60;5.50;;;;;;;40.00;39.83;100813.32;102849;276;114691;-55
2023/08/15 06:20:23;;;;;;;6.20;5.50;;;;;;;40.43;38.64;100816.02;102806;276;94416;-55
2023/08/15 06:23:03;;;;;;;7.40;5.80;;;;;;;40.90;38.41;100810.59;102955;276;98589;-58
2023/08/15 06:25:41;;;;;;;6.40;5.20;;;;;;;41.30;37.34;100812.52;102910;276;119108;-59
2023/08/15 06:28:20;;;;;;;5.30;4.80;;;;;;;41.63;36.22;100816.31;102906;276;103361;-58
2023/08/15 06:31:00;;;;;;;6.10;5.40;;;;;;;41.94;35.35;100815.21;102865;276;115693;-58
2023/08/15 06:33:39;;;;;;;7.00;5.20;;;;;;;41.64;34.52;100818.61;102758;276;94857;-54
2023/08/15 06:36:14;;;;;;;5.80;4.90;;;;;;;40.44;34.76;100816.88;102810;276;96718;-56
2023/08/15 06:38:53;;;;;;;5.90;4.90;;;;;;;39.48;35.39;100821.61;102815;276;119509;-56
2023/08/15 06:41:34;;;;;;;5.30;4.90;;;;;;;39.82;35.47;100821.31;102820;276;105050;-56
2023/08/15 06:44:13;;;;;;;6.30;4.90;;;;;;;40.73;34.23;100820.70;102774;276;114575;-55
2023/08/15 06:46:50;;;;;;;5.50;4.80;;;;;;;41.27;33.21;100817.50;102749;276;94578;-55
2023/08/15 06:49:24;;;;;;;7.10;5.20;;;;;;;41.14;32.86;100816.60;102786;276;95693;-55
2023/08/15 06:52:03;;;;;;;6.60;5.00;;;;;;;40.83;32.76;100816.64;102787;276;121104;-56
2023/08/15 06:54:44;;;;;;;5.40;4.50;;;;;;;39.48;33.11;100820.70;102753;264;105416;-55
2023/08/15 06:57:18;;;;;;;9.00;5.10;;;;;;;38.07;34.15;100823.32;102779;276;113785;-55
2023/08/15 07:00:00;;;;;;;5.30;4.80;;;;;;;36.70;35.30;100826.05;102757;276;94758;-56
2023/08/15 07:02:39;;;;;;;7.90;5.40;;;;;;;35.67;36.34;100825.15;102798;276;97159;-54
2023/08/15 07:05:15;;;;;;;5.80;5.20;;;;;;;35.01;37.23;100827.00;102823;276;120570;-53
2023/08/15 07:07:53;;;;;;;5.60;4.80;;;;;;;34.53;38.18;100830.98;102782;276;105798;-55
2023/08/15 07:10:29;;;;;;;6.90;4.90;;;;;;;34.43;38.60;100829.58;102778;276;114104;-55
2023/08/15 07:13:06;;;;;;;5.70;4.60;;;;;;;34.80;38.39;100828.64;102856;276;93895;-57
2023/08/15 07:15:45;;;;;;;4.90;4.50;;;;;;;34.45;38.74;100829.98;102864;276;96898;-57
2023/08/15 07:18:25;;;;;;;5.20;4.70;;;;;;;34.62;39.16;100828.11;102755;276;120171;-53
2023/08/15 07:21:03;;;;;;;5.40;4.40;;;;;;;35.58;38.69;100830.11;102798;276;104206;-55
2023/08/15 07:23:49;;;;;;;8.50;4.80;;;;;;;36.68;37.29;100829.20;102771;276;113163;-56
2023/08/15 07:26:24;;;;;;;5.60;4.60;;;;;;;38.14;36.16;100829.16;102793;272;95135;-55
2023/08/15 07:29:04;;;;;;;5.50;5.00;;;;;;;39.70;34.72;100828.42;102758;276;98412;-56
2023/08/15 07:31:45;;;;;;;4.60;3.90;;;;;;;40.94;33.40;100825.22;102823;276;120833;-55
2023/08/15 07:34:29;;;;;;;6.50;4.20;;;;;;;41.58;31.93;100829.31;102793;276;104796;-56
2023/08/15 07:37:07;;;;;;;6.70;4.10;;;;;;;41.93;31.06;100828.98;102781;276;115044;-55
2023/08/15 07:39:48;;;;;;;4.60;4.10;;;;;;;41.30;30.52;100827.27;102741;276;94826;-57
2023/08/15 07:42:27;;;;;;;6.90;3.80;;;;;;;41.14;30.12;100830.95;102775;276;97723;-57
2023/08/15 07:45:04;;;;;;;4.30;3.70;;;;;;;41.86;29.20;100835.95;102778;276;120647;-54
2023/08/15 07:47:40;;;;;;;3.80;3.20;;;;;;;42.55;28.60;100830.11;102815;276;105489;-55
2023/08/15 07:50:21;;;;;;;3.60;3.30;;;;;;;43.33;27.89;100827.83;102744;276;114080;-55
2023/08/15 07:53:00;;;;;;;4.50;3.50;;;;;;;43.83;27.03;100824.02;102763;276;94706;-55
2023/08/15 07:55:41;;;;;;;3.70;3.30;;;;;;;43.81;26.52;100825.41;102528;276;98513;-56
2023/08/15 07:58:25;;;;;;;4.10;3.70;;;;;;;44.24;26.38;100822.94;102917;276;121253;-58
2023/08/15 08:01:04;;;;;;;4.10;3.40;;;;;;;44.67;25.80;100822.27;102913;276;105367;-55
2023/08/15 08:03:47;;;;;;;3.60;3.10;;;;;;;44.97;25.27;100819.29;102709;276;113997;-54
2023/08/15 08:06:30;;;;;;;4.30;3.30;;;;;;;45.31;25.19;100812.48;102789;276;95097;-56
2023/08/15 08:09:13;;;;;;;4.50;3.60;;;;;;;45.32;24.52;100810.60;102725;276;97523;-56
2023/08/15 08:11:56;;;;;;;4.50;3.60;;;;;;;45.37;24.23;100815.22;102744;276;120627;-56
2023/08/15 08:14:39;;;;;;;3.80;3.00;;;;;;;45.49;23.68;100813.67;102767;276;106247;-55
2023/08/15 08:17:22;;;;;;;3.40;3.10;;;;;;;45.01;23.51;100809.39;102855;276;112908;-58
2023/08/15 08:20:05;;;;;;;3.40;2.90;;;;;;;45.36;23.80;100808.54;102875;276;94994;-58
2023/08/15 08:22:43;;;;;;;5.90;3.20;;;;;;;45.33;22.97;100808.65;102853;276;97409;-55
2023/08/15 08:25:27;;;;;;;5.20;3.40;;;;;;;45.31;23.07;100808.31;102797;276;121038;-55
2023/08/15 08:28:07;;;;;;;3.50;3.20;;;;;;;45.57;22.71;100810.14;102858;276;105142;-56
2023/08/15 08:30:48;;;;;;;5.00;2.80;;;;;;;45.37;22.56;100807.23;102803;276;114871;-57
2023/08/15 08:33:28;;;;;;;5.30;2.60;;;;;;;45.53;22.43;100804.77;102805;276;94182;-55
2023/08/15 08:36:05;;;;;;;4.10;2.90;;;;;;;45.60;22.14;100803.99;102874;276;96257;-55
2023/08/15 08:38:42;;;;;;;3.30;3.00;;;;;;;45.67;21.95;100804.96;102800;276;120895;-54
2023/08/15 08:41:28;;;;;;;5.50;3.60;;;;;;;45.79;21.64;100799.66;102841;276;105491;-55
2023/08/15 08:44:09;;;;;;;3.90;3.40;;;;;;;45.60;21.69;100791.52;102782;276;113262;-55
2023/08/15 08:46:46;;;;;;;3.90;3.40;;;;;;;45.28;21.66;100782.63;102806;276;94586;-53
2023/08/15 08:49:21;;;;;;;3.60;3.00;;;;;;;45.60;21.99;100784.59;102763;276;98064;-52
2023/08/15 08:51:58;;;;;;;4.90;3.60;;;;;;;45.66;22.02;100779.36;102813;276;119003;-53
2023/08/15 08:54:32;;;;;;;5.20;3.70;;;;;;;45.66;21.71;100777.54;102811;276;103246;-53
2023/08/15 08:57:15;;;;;;;3.70;3.40;;;;;;;45.46;21.73;100777.73;102834;276;114420;-60
2023/08/15 08:59:57;;;;;;;4.90;4.10;;;;;;;45.41;21.71;100776.53;102782;276;94767;-59
2023/08/15 09:02:32;;;;;;;5.50;3.60;;;;;;;45.05;21.72;100769.85;102815;276;97683;-64
2023/08/15 09:05:11;;;;;;;3.80;3.50;;;;;;;45.14;21.96;100770.79;102758;276;121211;-63
2023/08/15 09:07:52;;;;;;;3.80;3.30;;;;;;;45.00;22.01;100770.84;102813;276;105724;-53
2023/08/15 09:10:38;;;;;;;5.90;3.50;;;;;;;44.65;22.15;100770.46;102788;276;115294;-52
2023/08/15 09:13:24;;;;;;;4.30;3.60;;;;;;;44.72;22.38;100771.17;102802;276;95309;-55
2023/08/15 09:16:04;;;;;;;4.00;3.60;;;;;;;44.59;22.24;100769.09;102794;276;97287;-54
2023/08/15 09:18:48;;;;;;;4.80;3.40;;;;;;;44.08;22.42;100766.59;102789;276;120565;-52
2023/08/15 09:21:29;;;;;;;4.50;4.10;;;;;;;43.33;23.06;100763.52;102850;276;105797;-53
2023/08/15 09:24:12;;;;;;;4.60;3.60;;;;;;;42.63;23.46;100764.07;102830;276;114573;-52
2023/08/15 09:26:50;;;;;;;7.00;3.90;;;;;;;41.72;24.48;100764.69;102812;276;94477;-55
2023/08/15 09:29:26;;;;;;;4.70;4.30;;;;;;;41.02;24.93;100764.19;102824;276;96609;-55
2023/08/15 09:32:06;;;;;;;5.00;4.50;;;;;;;40.41;25.68;100759.58;102808;276;121146;-53
2023/08/15 09:34:45;;;;;;;4.70;4.30;;;;;;;39.84;26.33;100758.70;102782;317;106345;-52
2023/08/15 09:37:29;;;;;;;4.90;4.00;;;;;;;39.43;27.10;100759.20;102868;276;114418;-57
2023/08/15 09:40:08;;;;;;;4.80;4.30;;;;;;;39.01;27.26;100763.02;102884;276;94572;-58
2023/08/15 09:42:47;;;;;;;4.90;4.40;;;;;;;38.52;27.68;100763.00;102883;276;97123;-55
2023/08/15 09:45:26;;;;;;;4.60;3.70;;;;;;;37.93;28.08;100760.19;102809;276;120214;-54
2023/08/15 09:48:10;;;;;;;5.10;4.20;;;;;;;37.84;28.60;100760.34;102919;276;105036;-54
2023/08/15 09:50:53;;;;;;;5.80;3.70;;;;;;;37.57;28.58;100759.84;102854;276;115239;-54
2023/08/15 09:53:28;;;;;;;5.90;4.30;;;;;;;37.25;28.69;100757.73;102893;276;93984;-57
2023/08/15 09:56:04;;;;;;;5.40;4.20;;;;;;;36.92;28.98;100761.98;102953;276;96797;-53
2023/08/15 09:58:42;;;;;;;5.20;3.70;;;;;;;36.82;29.50;100760.45;102811;276;121209;-52
2023/08/15 10:01:21;;;;;;;4.90;4.30;;;;;;;36.81;29.73;100758.81;102819;276;104009;-54
2023/08/15 10:04:02;;;;;;;6.80;4.20;;;;;;;36.62;29.73;100756.29;102841;276;114243;-55
2023/08/15 10:06:47;;;;;;;4.90;3.60;;;;;;;36.54;29.92;100749.62;102811;276;96182;-53
2023/08/15 10:09:24;;;;;;;5.20;3.40;;;;;;;36.45;30.31;100751.88;102827;276;98376;-55
2023/08/15 10:12:02;;;;;;;5.60;3.60;;;;;;;36.48;30.63;100753.88;102803;276;120888;-56
2023/08/15 10:14:40;;;;;;;6.30;3.20;;;;;;;36.48;30.48;100751.04;102914;276;106715;-56
2023/08/15 10:17:15;;;;;;;4.20;3.40;;;;;;;36.28;30.19;100747.24;102876;276;113367;-53
2023/08/15 10:19:51;;;;;;;4.60;3.20;;;;;;;36.11;30.51;100748.05;102811;276;94399;-53
2023/08/15 10:22:36;;;;;;;6.10;4.10;;;;;;;36.16;30.77;100744.83;102825;276;99045;-54
2023/08/15 10:25:39;;;;;;;3.80;3.40;;;;;;;36.20;30.91;100741.27;102766;276;121650;-55
2023/08/15 10:28:17;;;;;;;3.80;3.40;;;;;;;36.20;31.13;100737.58;102866;276;106201;-53
2023/08/15 10:30:57;;;;;;;4.70;3.90;;;;;;;36.33;31.17;100737.27;102781;276;114291;-54
2023/08/15 10:33:39;;;;;;;5.50;3.70;;;;;;;36.33;30.68;100734.55;102820;276;95056;-54
2023/08/15 10:36:14;;;;;;;6.10;3.50;;;;;;;36.31;30.74;100736.00;102857;276;96138;-55
2023/08/15 10:38:56;;;;;;;5.40;3.70;;;;;;;36.30;30.63;100738.56;102823;276;119917;-56
2023/08/15 10:41:39;;;;;;;5.20;3.50;;;;;;;36.20;30.55;100731.16;102814;276;105167;-56
2023/08/15 10:44:19;;;;;;;;;;;;;;;36.21;30.88;100731.17;102790;276;114015;-56
2023/08/15 10:47:01;;;;;;;4.00;3.40;;;;;;;36.17;31.05;100735.14;102853;276;93986;-57
2023/08/15 10:49:46;;;;;;;3.60;3.20;;;;;;;36.22;30.90;100733.95;102946;276;96976;-58
2023/08/15 10:52:24;;;;;;;4.80;3.50;;;;;;;36.24;30.59;100728.77;102903;276;119798;-57
2023/08/15 10:55:03;;;;;;;5.50;3.40;;;;;;;36.12;30.02;100730.15;102922;276;105245;-57
2023/08/15 10:57:40;;;;;;;5.50;3.50;;;;;;;36.16;30.35;100731.80;102608;276;115135;-58
2023/08/15 11:00:23;;;;;;;3.80;3.40;;;;;;;36.00;29.62;100734.14;102934;276;93467;-58
2023/08/15 11:03:00;;;;;;;3.80;3.40;;;;;;;35.94;30.06;100732.35;102873;276;95610;-55
2023/08/15 11:05:36;;;;;;;4.70;3.30;;;;;;;36.00;29.65;100735.86;102777;276;120059;-55
2023/08/15 11:08:21;;;;;;;4.70;3.30;;;;;;;35.95;29.77;100730.61;102819;276;105864;-53
2023/08/15 11:10:58;;;;;;;5.40;3.20;;;;;;;35.96;30.00;100732.16;102742;276;115557;-54
2023/08/15 11:13:39;;;;;;;3.50;2.80;;;;;;;35.98;29.45;100734.88;102360;276;454726;-55
2023/08/15 11:16:14;;;;;;;3.40;2.90;;;;;;;35.72;28.93;100730.16;102671;276;97649;-56
2023/08/15 11:18:51;;;;;;;3.80;3.00;;;;;;;35.71;28.90;100729.88;102787;276;121558;-56
2023/08/15 11:21:37;;;;;;;5.70;3.30;;;;;;;35.72;29.16;100732.88;102825;276;105957;-57
2023/08/15 11:24:17;;;;;;;4.50;3.10;;;;;;;35.77;29.48;100729.43;102783;276;114459;-57
2023/08/15 11:26:53;;;;;;;3.50;3.00;;;;;;;35.93;29.19;100726.45;102886;276;94955;-58
2023/08/15 11:29:33;;;;;;;3.70;3.10;;;;;;;36.04;29.09;100721.85;102854;276;97419;-58
2023/08/15 11:32:14;;;;;;;4.30;3.20;;;;;;;35.96;28.59;100716.13;102897;276;121452;-58
2023/08/15 11:34:52;;;;;;;6.50;3.30;;;;;;;35.86;28.84;100727.34;102934;276;106212;-58
2023/08/15 11:37:31;;;;;;;6.70;3.50;;;;;;;35.84;29.20;100728.95;102778;276;114240;-54
2023/08/15 11:40:10;;;;;;;4.60;3.10;;;;;;;35.78;29.11;100720.66;102774;276;92831;-54
2023/08/15 11:42:51;;;;;;;4.90;3.20;;;;;;;35.73;28.61;100718.20;102890;276;97256;-57
2023/08/15 11:45:32;;;;;;;3.40;2.70;;;;;;;35.70;28.48;100718.77;102845;276;121150;-57
2023/08/15 11:48:09;;;;;;;3.90;2.70;;;;;;;35.75;28.15;100717.23;102815;276;104980;-55
2023/08/15 11:50:47;;;;;;;4.20;2.90;;;;;;;35.69;27.52;100720.80;102779;276;113167;-54
2023/08/15 11:53:24;;;;;;;3.30;2.30;;;;;;;35.56;26.91;100717.63;102889;276;93324;-57
2023/08/15 11:56:05;;;;;;;2.50;2.30;;;;;;;35.44;26.45;100719.67;102887;276;97843;-54
2023/08/15 11:58:44;;;;;;;5.20;2.50;;;;;;;35.40;26.75;100715.86;102793;276;119191;-53
2023/08/15 12:01:27;;;;;;;4.40;3.00;;;;;;;35.38;26.77;100718.89;102814;276;105427;-56
2023/08/15 12:04:05;;;;;;;3.00;2.20;;;;;;;35.36;27.06;100714.88;102838;264;115437;-57
2023/08/15 12:06:41;;;;;;;5.10;3.00;;;;;;;35.37;26.99;100704.66;102884;276;94470;-54
2023/08/15 12:09:17;;;;;;;2.30;2.10;;;;;;;35.39;26.70;100708.66;102767;276;98598;-53
2023/08/15 12:12:00;;;;;;;2.60;2.10;;;;;;;35.36;26.24;100708.57;102752;276;121135;-55
2023/08/15 12:14:41;;;;;;;2.60;2.20;;;;;;;35.29;25.47;100712.71;102776;276;106485;-56